sensor_id;sensor_type;location;lat;lon;timestamp;P1;durP1;ratioP1;P2;durP2;ratioP2
6791;SDS011;3433;48.730;9.108;2023-12-20T00:00:01;1.60;;;1.50;;
6791;SDS011;3433;48.730;9.108;2023-12-20T00:02:48;2.00;;;1.90;;
6791;SDS011;3433;48.730;9.108;2023-12-20T00:05:35;1.50;;;1.40;;
6791;SDS011;3433;48.730;9.108;2023-12-20T00:08:27;1.87;;;1.30;;
6791;SDS011;3433;48.730;9.108;2023-12-20T00:11:15;2.83;;;1.77;;
6791;SDS011;3433;48.730;9.108;2023-12-20T00:14:02;2.37;;;1.80;;
6791;SDS011;3433;48.730;9.108;2023-12-20T00:16:49;2.17;;;1.30;;
6791;SDS011;3433;48.730;9.108;2023-12-20T00:19:36;1.20;;;1.10;;
6791;SDS011;3433;48.730;9.108;2023-12-20T00:22:23;1.67;;;1.30;;
6791;SDS011;3433;48.730;9.108;2023-12-20T00:25:12;2.20;;;1.30;;
6791;SDS011;3433;48.730;9.108;2023-12-20T00:27:59;1.23;;;1.13;;
6791;SDS011;3433;48.730;9.108;2023-12-20T00:30:47;1.10;;;1.00;;
6791;SDS011;3433;48.730;9.108;2023-12-20T00:33:34;2.03;;;1.13;;
6791;SDS011;3433;48.730;9.108;2023-12-20T00:36:22;2.10;;;1.17;;
6791;SDS011;3433;48.730;9.108;2023-12-20T00:39:09;1.50;;;1.23;;
6791;SDS011;3433;48.730;9.108;2023-12-20T00:41:57;1.20;;;1.10;;
6791;SDS011;3433;48.730;9.108;2023-12-20T00:44:44;1.40;;;1.30;;
6791;SDS011;3433;48.730;9.108;2023-12-20T00:47:32;1.93;;;1.20;;
6791;SDS011;3433;48.730;9.108;2023-12-20T00:50:19;1.27;;;1.07;;
6791;SDS011;3433;48.730;9.108;2023-12-20T00:53:07;1.60;;;1.00;;
6791;SDS011;3433;48.730;9.108;2023-12-20T00:55:54;1.30;;;1.10;;
6791;SDS011;3433;48.730;9.108;2023-12-20T00:58:42;1.80;;;0.90;;
6791;SDS011;3433;48.730;9.108;2023-12-20T01:01:30;1.60;;;1.40;;
6791;SDS011;3433;48.730;9.108;2023-12-20T01:04:18;1.20;;;1.10;;
6791;SDS011;3433;48.730;9.108;2023-12-20T01:07:05;1.30;;;1.20;;
6791;SDS011;3433;48.730;9.108;2023-12-20T01:09:52;1.67;;;1.57;;
6791;SDS011;3433;48.730;9.108;2023-12-20T01:12:40;0.97;;;0.97;;
6791;SDS011;3433;48.730;9.108;2023-12-20T01:15:28;1.33;;;1.13;;
6791;SDS011;3433;48.730;9.108;2023-12-20T01:18:15;1.20;;;1.10;;
6791;SDS011;3433;48.730;9.108;2023-12-20T01:21:03;1.60;;;1.00;;
6791;SDS011;3433;48.730;9.108;2023-12-20T01:23:50;1.37;;;1.10;;
6791;SDS011;3433;48.730;9.108;2023-12-20T01:26:37;1.50;;;1.13;;
6791;SDS011;3433;48.730;9.108;2023-12-20T01:29:24;1.07;;;1.00;;
6791;SDS011;3433;48.730;9.108;2023-12-20T01:32:13;1.20;;;0.97;;
6791;SDS011;3433;48.730;9.108;2023-12-20T01:35:00;1.23;;;0.80;;
6791;SDS011;3433;48.730;9.108;2023-12-20T01:37:48;0.90;;;0.80;;
6791;SDS011;3433;48.730;9.108;2023-12-20T01:40:35;1.13;;;1.03;;
6791;SDS011;3433;48.730;9.108;2023-12-20T01:43:22;1.63;;;1.20;;
6791;SDS011;3433;48.730;9.108;2023-12-20T01:46:09;1.33;;;1.07;;
6791;SDS011;3433;48.730;9.108;2023-12-20T01:48:59;1.80;;;0.70;;
6791;SDS011;3433;48.730;9.108;2023-12-20T01:51:46;1.30;;;1.10;;
6791;SDS011;3433;48.730;9.108;2023-12-20T01:54:33;0.80;;;0.80;;
6791;SDS011;3433;48.730;9.108;2023-12-20T01:57:22;1.40;;;1.00;;
6791;SDS011;3433;48.730;9.108;2023-12-20T02:00:09;2.93;;;1.10;;
6791;SDS011;3433;48.730;9.108;2023-12-20T02:02:58;1.17;;;1.07;;
6791;SDS011;3433;48.730;9.108;2023-12-20T02:05:49;1.60;;;1.07;;
6791;SDS011;3433;48.730;9.108;2023-12-20T02:08:37;1.40;;;1.00;;
6791;SDS011;3433;48.730;9.108;2023-12-20T02:11:24;1.10;;;1.00;;
6791;SDS011;3433;48.730;9.108;2023-12-20T02:14:12;0.80;;;0.70;;
6791;SDS011;3433;48.730;9.108;2023-12-20T02:16:59;2.10;;;0.63;;
6791;SDS011;3433;48.730;9.108;2023-12-20T02:19:46;0.80;;;0.80;;
6791;SDS011;3433;48.730;9.108;2023-12-20T02:22:35;0.93;;;0.70;;
6791;SDS011;3433;48.730;9.108;2023-12-20T02:25:22;0.90;;;0.60;;
6791;SDS011;3433;48.730;9.108;2023-12-20T02:28:09;0.70;;;0.70;;
6791;SDS011;3433;48.730;9.108;2023-12-20T02:30:57;1.20;;;0.83;;
6791;SDS011;3433;48.730;9.108;2023-12-20T02:33:44;1.00;;;0.80;;
6791;SDS011;3433;48.730;9.108;2023-12-20T02:36:31;0.70;;;0.63;;
6791;SDS011;3433;48.730;9.108;2023-12-20T02:39:20;4.03;;;0.80;;
6791;SDS011;3433;48.730;9.108;2023-12-20T02:42:08;0.70;;;0.60;;
6791;SDS011;3433;48.730;9.108;2023-12-20T02:44:55;1.00;;;0.80;;
6791;SDS011;3433;48.730;9.108;2023-12-20T02:47:42;0.63;;;0.63;;
6791;SDS011;3433;48.730;9.108;2023-12-20T02:50:30;0.70;;;0.67;;
6791;SDS011;3433;48.730;9.108;2023-12-20T02:53:17;0.53;;;0.53;;
6791;SDS011;3433;48.730;9.108;2023-12-20T02:56:06;0.60;;;0.60;;
6791;SDS011;3433;48.730;9.108;2023-12-20T02:58:53;2.50;;;0.50;;
6791;SDS011;3433;48.730;9.108;2023-12-20T03:01:41;0.60;;;0.50;;
6791;SDS011;3433;48.730;9.108;2023-12-20T03:04:29;1.10;;;0.60;;
6791;SDS011;3433;48.730;9.108;2023-12-20T03:07:17;0.70;;;0.50;;
6791;SDS011;3433;48.730;9.108;2023-12-20T03:10:04;0.50;;;0.50;;
6791;SDS011;3433;48.730;9.108;2023-12-20T03:12:54;3.43;;;0.60;;
6791;SDS011;3433;48.730;9.108;2023-12-20T03:15:41;1.37;;;0.60;;
6791;SDS011;3433;48.730;9.108;2023-12-20T03:18:28;0.80;;;0.60;;
6791;SDS011;3433;48.730;9.108;2023-12-20T03:21:16;1.50;;;0.60;;
6791;SDS011;3433;48.730;9.108;2023-12-20T03:24:03;3.43;;;0.60;;
6791;SDS011;3433;48.730;9.108;2023-12-20T03:26:51;0.70;;;0.60;;
6791;SDS011;3433;48.730;9.108;2023-12-20T03:29:39;0.80;;;0.60;;
6791;SDS011;3433;48.730;9.108;2023-12-20T03:32:27;0.70;;;0.60;;
6791;SDS011;3433;48.730;9.108;2023-12-20T03:35:14;0.70;;;0.60;;
6791;SDS011;3433;48.730;9.108;2023-12-20T03:38:01;0.63;;;0.50;;
6791;SDS011;3433;48.730;9.108;2023-12-20T03:40:48;0.70;;;0.60;;
6791;SDS011;3433;48.730;9.108;2023-12-20T03:43:36;0.83;;;0.40;;
6791;SDS011;3433;48.730;9.108;2023-12-20T03:46:24;0.50;;;0.40;;
6791;SDS011;3433;48.730;9.108;2023-12-20T03:49:11;1.20;;;0.43;;
6791;SDS011;3433;48.730;9.108;2023-12-20T03:51:59;0.87;;;0.40;;
6791;SDS011;3433;48.730;9.108;2023-12-20T03:54:46;0.50;;;0.40;;
6791;SDS011;3433;48.730;9.108;2023-12-20T03:57:33;4.83;;;0.40;;
6791;SDS011;3433;48.730;9.108;2023-12-20T04:00:20;1.37;;;0.40;;
6791;SDS011;3433;48.730;9.108;2023-12-20T04:03:09;0.60;;;0.43;;
6791;SDS011;3433;48.730;9.108;2023-12-20T04:05:58;0.50;;;0.40;;
6791;SDS011;3433;48.730;9.108;2023-12-20T04:08:45;0.47;;;0.40;;
6791;SDS011;3433;48.730;9.108;2023-12-20T04:11:32;0.70;;;0.40;;
6791;SDS011;3433;48.730;9.108;2023-12-20T04:14:19;0.50;;;0.40;;
6791;SDS011;3433;48.730;9.108;2023-12-20T04:17:06;0.60;;;0.40;;
6791;SDS011;3433;48.730;9.108;2023-12-20T04:19:55;0.60;;;0.40;;
6791;SDS011;3433;48.730;9.108;2023-12-20T04:22:42;0.60;;;0.40;;
6791;SDS011;3433;48.730;9.108;2023-12-20T04:25:29;0.60;;;0.40;;
6791;SDS011;3433;48.730;9.108;2023-12-20T04:28:16;0.70;;;0.40;;
6791;SDS011;3433;48.730;9.108;2023-12-20T04:31:04;1.13;;;0.40;;
6791;SDS011;3433;48.730;9.108;2023-12-20T04:33:51;0.97;;;0.70;;
6791;SDS011;3433;48.730;9.108;2023-12-20T04:36:39;0.60;;;0.50;;
6791;SDS011;3433;48.730;9.108;2023-12-20T04:39:26;1.80;;;0.40;;
6791;SDS011;3433;48.730;9.108;2023-12-20T04:42:14;0.50;;;0.40;;
6791;SDS011;3433;48.730;9.108;2023-12-20T04:45:01;0.50;;;0.40;;
6791;SDS011;3433;48.730;9.108;2023-12-20T04:47:48;3.23;;;0.60;;
6791;SDS011;3433;48.730;9.108;2023-12-20T04:50:35;1.17;;;0.40;;
6791;SDS011;3433;48.730;9.108;2023-12-20T04:53:24;0.53;;;0.43;;
6791;SDS011;3433;48.730;9.108;2023-12-20T04:56:11;0.50;;;0.40;;
6791;SDS011;3433;48.730;9.108;2023-12-20T04:58:58;0.70;;;0.40;;
6791;SDS011;3433;48.730;9.108;2023-12-20T05:01:45;1.13;;;0.40;;
6791;SDS011;3433;48.730;9.108;2023-12-20T05:04:32;0.40;;;0.30;;
6791;SDS011;3433;48.730;9.108;2023-12-20T05:07:20;0.50;;;0.40;;
6791;SDS011;3433;48.730;9.108;2023-12-20T05:10:09;0.60;;;0.40;;
6791;SDS011;3433;48.730;9.108;2023-12-20T05:12:56;0.50;;;0.40;;
6791;SDS011;3433;48.730;9.108;2023-12-20T05:15:43;0.60;;;0.40;;
6791;SDS011;3433;48.730;9.108;2023-12-20T05:18:30;0.77;;;0.47;;
6791;SDS011;3433;48.730;9.108;2023-12-20T05:21:17;0.60;;;0.43;;
6791;SDS011;3433;48.730;9.108;2023-12-20T05:24:05;9.87;;;0.80;;
6791;SDS011;3433;48.730;9.108;2023-12-20T05:26:53;0.50;;;0.40;;
6791;SDS011;3433;48.730;9.108;2023-12-20T05:29:41;0.50;;;0.40;;
6791;SDS011;3433;48.730;9.108;2023-12-20T05:32:28;1.03;;;0.50;;
6791;SDS011;3433;48.730;9.108;2023-12-20T05:35:15;0.50;;;0.40;;
6791;SDS011;3433;48.730;9.108;2023-12-20T05:38:02;0.73;;;0.50;;
6791;SDS011;3433;48.730;9.108;2023-12-20T05:40:50;0.50;;;0.40;;
6791;SDS011;3433;48.730;9.108;2023-12-20T05:43:38;0.90;;;0.50;;
6791;SDS011;3433;48.730;9.108;2023-12-20T05:46:26;0.93;;;0.77;;
6791;SDS011;3433;48.730;9.108;2023-12-20T05:49:13;0.60;;;0.40;;
6791;SDS011;3433;48.730;9.108;2023-12-20T05:52:00;1.80;;;1.20;;
6791;SDS011;3433;48.730;9.108;2023-12-20T05:54:47;0.80;;;0.70;;
6791;SDS011;3433;48.730;9.108;2023-12-20T05:57:34;0.80;;;0.63;;
6791;SDS011;3433;48.730;9.108;2023-12-20T06:00:23;0.70;;;0.60;;
6791;SDS011;3433;48.730;9.108;2023-12-20T06:03:10;0.60;;;0.50;;
6791;SDS011;3433;48.730;9.108;2023-12-20T06:05:57;0.50;;;0.50;;
6791;SDS011;3433;48.730;9.108;2023-12-20T06:08:45;1.97;;;1.50;;
6791;SDS011;3433;48.730;9.108;2023-12-20T06:11:33;1.07;;;0.60;;
6791;SDS011;3433;48.730;9.108;2023-12-20T06:14:20;0.90;;;0.70;;
6791;SDS011;3433;48.730;9.108;2023-12-20T06:17:08;0.80;;;0.60;;
6791;SDS011;3433;48.730;9.108;2023-12-20T06:19:55;1.73;;;0.60;;
6791;SDS011;3433;48.730;9.108;2023-12-20T06:22:43;2.10;;;0.70;;
6791;SDS011;3433;48.730;9.108;2023-12-20T06:25:30;0.90;;;0.60;;
6791;SDS011;3433;48.730;9.108;2023-12-20T06:28:17;0.97;;;0.97;;
6791;SDS011;3433;48.730;9.108;2023-12-20T06:31:04;4.87;;;1.60;;
6791;SDS011;3433;48.730;9.108;2023-12-20T06:33:53;5.80;;;1.00;;
6791;SDS011;3433;48.730;9.108;2023-12-20T06:36:42;2.60;;;1.07;;
6791;SDS011;3433;48.730;9.108;2023-12-20T06:39:30;1.47;;;0.60;;
6791;SDS011;3433;48.730;9.108;2023-12-20T06:42:19;0.93;;;0.83;;
6791;SDS011;3433;48.730;9.108;2023-12-20T06:45:06;0.77;;;0.60;;
6791;SDS011;3433;48.730;9.108;2023-12-20T06:47:54;2.40;;;0.80;;
6791;SDS011;3433;48.730;9.108;2023-12-20T06:50:42;1.00;;;0.90;;
6791;SDS011;3433;48.730;9.108;2023-12-20T06:53:29;1.13;;;0.60;;
6791;SDS011;3433;48.730;9.108;2023-12-20T06:56:17;2.57;;;1.50;;
6791;SDS011;3433;48.730;9.108;2023-12-20T06:59:04;2.97;;;0.80;;
6791;SDS011;3433;48.730;9.108;2023-12-20T07:01:51;1.37;;;1.00;;
6791;SDS011;3433;48.730;9.108;2023-12-20T07:04:39;0.60;;;0.60;;
6791;SDS011;3433;48.730;9.108;2023-12-20T07:07:29;0.80;;;0.80;;
6791;SDS011;3433;48.730;9.108;2023-12-20T07:10:16;1.00;;;0.80;;
6791;SDS011;3433;48.730;9.108;2023-12-20T07:13:04;3.27;;;0.80;;
6791;SDS011;3433;48.730;9.108;2023-12-20T07:15:52;2.00;;;0.70;;
6791;SDS011;3433;48.730;9.108;2023-12-20T07:18:39;1.80;;;0.90;;
6791;SDS011;3433;48.730;9.108;2023-12-20T07:21:26;4.00;;;0.87;;
6791;SDS011;3433;48.730;9.108;2023-12-20T07:24:15;2.47;;;1.00;;
6791;SDS011;3433;48.730;9.108;2023-12-20T07:27:03;1.10;;;1.00;;
6791;SDS011;3433;48.730;9.108;2023-12-20T07:29:50;2.47;;;1.20;;
6791;SDS011;3433;48.730;9.108;2023-12-20T07:32:37;5.13;;;2.50;;
6791;SDS011;3433;48.730;9.108;2023-12-20T07:35:24;3.20;;;2.73;;
6791;SDS011;3433;48.730;9.108;2023-12-20T07:38:11;3.50;;;2.00;;
6791;SDS011;3433;48.730;9.108;2023-12-20T07:41:00;2.37;;;2.17;;
6791;SDS011;3433;48.730;9.108;2023-12-20T07:43:47;2.23;;;2.13;;
6791;SDS011;3433;48.730;9.108;2023-12-20T07:46:34;3.00;;;2.73;;
6791;SDS011;3433;48.730;9.108;2023-12-20T07:49:22;5.63;;;2.83;;
6791;SDS011;3433;48.730;9.108;2023-12-20T07:52:09;2.90;;;2.57;;
6791;SDS011;3433;48.730;9.108;2023-12-20T07:54:56;3.33;;;3.03;;
6791;SDS011;3433;48.730;9.108;2023-12-20T07:57:44;3.73;;;3.30;;
6791;SDS011;3433;48.730;9.108;2023-12-20T08:00:32;5.10;;;3.27;;
6791;SDS011;3433;48.730;9.108;2023-12-20T08:03:19;3.40;;;3.10;;
6791;SDS011;3433;48.730;9.108;2023-12-20T08:06:06;3.73;;;3.40;;
6791;SDS011;3433;48.730;9.108;2023-12-20T08:08:53;4.10;;;3.10;;
6791;SDS011;3433;48.730;9.108;2023-12-20T08:11:42;3.87;;;3.17;;
6791;SDS011;3433;48.730;9.108;2023-12-20T08:14:33;3.13;;;2.83;;
6791;SDS011;3433;48.730;9.108;2023-12-20T08:17:20;4.57;;;3.17;;
6791;SDS011;3433;48.730;9.108;2023-12-20T08:20:08;4.90;;;3.30;;
6791;SDS011;3433;48.730;9.108;2023-12-20T08:22:56;3.63;;;3.30;;
6791;SDS011;3433;48.730;9.108;2023-12-20T08:25:43;5.13;;;3.70;;
6791;SDS011;3433;48.730;9.108;2023-12-20T08:28:31;3.70;;;3.33;;
6791;SDS011;3433;48.730;9.108;2023-12-20T08:31:20;4.33;;;3.33;;
6791;SDS011;3433;48.730;9.108;2023-12-20T08:34:07;3.80;;;3.13;;
6791;SDS011;3433;48.730;9.108;2023-12-20T08:36:54;7.27;;;4.23;;
6791;SDS011;3433;48.730;9.108;2023-12-20T08:39:41;10.50;;;4.50;;
6791;SDS011;3433;48.730;9.108;2023-12-20T08:42:29;5.40;;;4.37;;
6791;SDS011;3433;48.730;9.108;2023-12-20T08:45:17;4.93;;;4.07;;
6791;SDS011;3433;48.730;9.108;2023-12-20T08:48:06;5.27;;;3.67;;
6791;SDS011;3433;48.730;9.108;2023-12-20T08:50:53;7.50;;;3.93;;
6791;SDS011;3433;48.730;9.108;2023-12-20T08:53:40;3.67;;;3.37;;
6791;SDS011;3433;48.730;9.108;2023-12-20T08:56:30;4.40;;;3.50;;
6791;SDS011;3433;48.730;9.108;2023-12-20T08:59:17;3.53;;;3.13;;
6791;SDS011;3433;48.730;9.108;2023-12-20T09:02:05;4.83;;;2.73;;
6791;SDS011;3433;48.730;9.108;2023-12-20T09:04:53;3.77;;;3.37;;
6791;SDS011;3433;48.730;9.108;2023-12-20T09:07:40;6.17;;;2.87;;
6791;SDS011;3433;48.730;9.108;2023-12-20T09:10:28;11.10;;;3.20;;
6791;SDS011;3433;48.730;9.108;2023-12-20T09:13:16;7.80;;;3.20;;
6791;SDS011;3433;48.730;9.108;2023-12-20T09:16:03;4.90;;;2.80;;
6791;SDS011;3433;48.730;9.108;2023-12-20T09:18:50;3.73;;;3.43;;
6791;SDS011;3433;48.730;9.108;2023-12-20T09:21:39;4.03;;;2.73;;
6791;SDS011;3433;48.730;9.108;2023-12-20T09:24:26;4.43;;;2.43;;
6791;SDS011;3433;48.730;9.108;2023-12-20T09:27:13;16.50;;;2.97;;
6791;SDS011;3433;48.730;9.108;2023-12-20T09:30:01;5.20;;;2.47;;
6791;SDS011;3433;48.730;9.108;2023-12-20T09:32:49;3.63;;;2.50;;
6791;SDS011;3433;48.730;9.108;2023-12-20T09:35:36;7.73;;;2.30;;
6791;SDS011;3433;48.730;9.108;2023-12-20T09:38:25;4.00;;;2.23;;
6791;SDS011;3433;48.730;9.108;2023-12-20T09:41:12;3.87;;;1.93;;
6791;SDS011;3433;48.730;9.108;2023-12-20T09:44:00;5.20;;;2.37;;
6791;SDS011;3433;48.730;9.108;2023-12-20T09:46:49;6.63;;;3.00;;
6791;SDS011;3433;48.730;9.108;2023-12-20T09:49:37;4.77;;;2.00;;
6791;SDS011;3433;48.730;9.108;2023-12-20T09:52:24;8.07;;;3.97;;
6791;SDS011;3433;48.730;9.108;2023-12-20T09:55:13;1.93;;;1.50;;
6791;SDS011;3433;48.730;9.108;2023-12-20T09:58:02;2.50;;;1.77;;
6791;SDS011;3433;48.730;9.108;2023-12-20T10:00:50;3.27;;;1.90;;
6791;SDS011;3433;48.730;9.108;2023-12-20T10:03:37;2.23;;;1.10;;
6791;SDS011;3433;48.730;9.108;2023-12-20T10:06:27;3.17;;;1.30;;
6791;SDS011;3433;48.730;9.108;2023-12-20T10:09:15;3.03;;;1.43;;
6791;SDS011;3433;48.730;9.108;2023-12-20T10:12:04;4.80;;;1.60;;
6791;SDS011;3433;48.730;9.108;2023-12-20T10:14:52;2.43;;;1.50;;
6791;SDS011;3433;48.730;9.108;2023-12-20T10:17:39;4.17;;;1.33;;
6791;SDS011;3433;48.730;9.108;2023-12-20T10:20:26;7.40;;;1.80;;
6791;SDS011;3433;48.730;9.108;2023-12-20T10:23:15;4.30;;;1.37;;
6791;SDS011;3433;48.730;9.108;2023-12-20T10:26:03;8.03;;;1.90;;
6791;SDS011;3433;48.730;9.108;2023-12-20T10:28:52;3.90;;;2.07;;
6791;SDS011;3433;48.730;9.108;2023-12-20T10:31:40;1.73;;;1.50;;
6791;SDS011;3433;48.730;9.108;2023-12-20T10:34:27;3.70;;;2.20;;
6791;SDS011;3433;48.730;9.108;2023-12-20T10:37:15;4.00;;;1.87;;
6791;SDS011;3433;48.730;9.108;2023-12-20T10:40:03;2.47;;;1.63;;
6791;SDS011;3433;48.730;9.108;2023-12-20T10:42:51;3.17;;;2.03;;
6791;SDS011;3433;48.730;9.108;2023-12-20T10:45:41;6.23;;;2.03;;
6791;SDS011;3433;48.730;9.108;2023-12-20T10:48:28;3.50;;;2.00;;
6791;SDS011;3433;48.730;9.108;2023-12-20T10:51:18;5.67;;;2.07;;
6791;SDS011;3433;48.730;9.108;2023-12-20T10:54:06;3.50;;;2.13;;
6791;SDS011;3433;48.730;9.108;2023-12-20T10:56:54;7.37;;;2.63;;
6791;SDS011;3433;48.730;9.108;2023-12-20T10:59:43;1.70;;;1.20;;
6791;SDS011;3433;48.730;9.108;2023-12-20T11:02:36;3.70;;;1.87;;
6791;SDS011;3433;48.730;9.108;2023-12-20T11:05:30;1.90;;;1.70;;
6791;SDS011;3433;48.730;9.108;2023-12-20T11:08:28;2.30;;;1.53;;
6791;SDS011;3433;48.730;9.108;2023-12-20T11:11:20;5.00;;;1.47;;
6791;SDS011;3433;48.730;9.108;2023-12-20T11:14:14;3.77;;;1.70;;
6791;SDS011;3433;48.730;9.108;2023-12-20T11:17:06;4.07;;;1.40;;
6791;SDS011;3433;48.730;9.108;2023-12-20T11:20:08;3.87;;;1.60;;
6791;SDS011;3433;48.730;9.108;2023-12-20T11:22:59;4.10;;;1.73;;
6791;SDS011;3433;48.730;9.108;2023-12-20T11:25:47;3.60;;;1.67;;
6791;SDS011;3433;48.730;9.108;2023-12-20T11:28:35;3.00;;;1.60;;
6791;SDS011;3433;48.730;9.108;2023-12-20T11:31:22;3.20;;;1.47;;
6791;SDS011;3433;48.730;9.108;2023-12-20T11:34:12;4.70;;;1.30;;
6791;SDS011;3433;48.730;9.108;2023-12-20T11:37:02;2.60;;;1.57;;
6791;SDS011;3433;48.730;9.108;2023-12-20T11:39:54;3.57;;;1.53;;
6791;SDS011;3433;48.730;9.108;2023-12-20T11:42:42;4.30;;;1.60;;
6791;SDS011;3433;48.730;9.108;2023-12-20T11:45:30;1.83;;;1.00;;
6791;SDS011;3433;48.730;9.108;2023-12-20T11:48:17;5.00;;;1.70;;
6791;SDS011;3433;48.730;9.108;2023-12-20T11:51:09;5.20;;;1.50;;
6791;SDS011;3433;48.730;9.108;2023-12-20T11:53:58;3.90;;;1.37;;
6791;SDS011;3433;48.730;9.108;2023-12-20T11:56:45;5.50;;;2.10;;
6791;SDS011;3433;48.730;9.108;2023-12-20T11:59:33;6.00;;;2.50;;
6791;SDS011;3433;48.730;9.108;2023-12-20T12:02:21;9.30;;;1.80;;
6791;SDS011;3433;48.730;9.108;2023-12-20T12:05:09;3.67;;;1.80;;
6791;SDS011;3433;48.730;9.108;2023-12-20T12:07:56;5.33;;;1.57;;
6791;SDS011;3433;48.730;9.108;2023-12-20T12:10:44;11.03;;;2.77;;
6791;SDS011;3433;48.730;9.108;2023-12-20T12:13:32;7.47;;;2.97;;
6791;SDS011;3433;48.730;9.108;2023-12-20T12:16:19;5.40;;;2.17;;
6791;SDS011;3433;48.730;9.108;2023-12-20T12:19:06;6.33;;;1.93;;
6791;SDS011;3433;48.730;9.108;2023-12-20T12:22:03;3.63;;;1.83;;
6791;SDS011;3433;48.730;9.108;2023-12-20T12:24:51;4.60;;;2.50;;
6791;SDS011;3433;48.730;9.108;2023-12-20T12:27:41;5.50;;;2.30;;
6791;SDS011;3433;48.730;9.108;2023-12-20T12:30:28;4.97;;;1.93;;
6791;SDS011;3433;48.730;9.108;2023-12-20T12:33:16;4.43;;;1.73;;
6791;SDS011;3433;48.730;9.108;2023-12-20T12:36:04;5.63;;;1.90;;
6791;SDS011;3433;48.730;9.108;2023-12-20T12:38:52;2.53;;;1.60;;
6791;SDS011;3433;48.730;9.108;2023-12-20T12:41:39;6.43;;;1.83;;
6791;SDS011;3433;48.730;9.108;2023-12-20T12:44:28;4.13;;;1.57;;
6791;SDS011;3433;48.730;9.108;2023-12-20T12:47:15;8.93;;;1.60;;
6791;SDS011;3433;48.730;9.108;2023-12-20T12:50:02;4.77;;;2.10;;
6791;SDS011;3433;48.730;9.108;2023-12-20T12:52:50;6.03;;;1.47;;
6791;SDS011;3433;48.730;9.108;2023-12-20T12:55:37;3.43;;;1.73;;
6791;SDS011;3433;48.730;9.108;2023-12-20T12:58:24;6.50;;;2.00;;
6791;SDS011;3433;48.730;9.108;2023-12-20T13:01:13;5.53;;;2.10;;
6791;SDS011;3433;48.730;9.108;2023-12-20T13:04:00;5.73;;;1.27;;
6791;SDS011;3433;48.730;9.108;2023-12-20T13:06:49;6.40;;;2.13;;
6791;SDS011;3433;48.730;9.108;2023-12-20T13:09:36;2.63;;;1.90;;
6791;SDS011;3433;48.730;9.108;2023-12-20T13:12:24;2.47;;;1.97;;
6791;SDS011;3433;48.730;9.108;2023-12-20T13:15:11;4.63;;;1.87;;
6791;SDS011;3433;48.730;9.108;2023-12-20T13:17:59;3.83;;;1.67;;
6791;SDS011;3433;48.730;9.108;2023-12-20T13:20:47;3.07;;;1.20;;
6791;SDS011;3433;48.730;9.108;2023-12-20T13:23:35;3.10;;;1.47;;
6791;SDS011;3433;48.730;9.108;2023-12-20T13:26:22;5.80;;;1.30;;
6791;SDS011;3433;48.730;9.108;2023-12-20T13:29:09;3.70;;;1.30;;
6791;SDS011;3433;48.730;9.108;2023-12-20T13:31:57;3.80;;;1.43;;
6791;SDS011;3433;48.730;9.108;2023-12-20T13:34:46;7.23;;;1.90;;
6791;SDS011;3433;48.730;9.108;2023-12-20T13:37:33;2.20;;;1.03;;
6791;SDS011;3433;48.730;9.108;2023-12-20T13:40:21;3.57;;;2.37;;
6791;SDS011;3433;48.730;9.108;2023-12-20T13:43:08;10.23;;;1.30;;
6791;SDS011;3433;48.730;9.108;2023-12-20T13:45:56;1.77;;;1.30;;
6791;SDS011;3433;48.730;9.108;2023-12-20T13:48:43;5.53;;;1.00;;
6791;SDS011;3433;48.730;9.108;2023-12-20T13:51:31;2.03;;;0.93;;
6791;SDS011;3433;48.730;9.108;2023-12-20T13:54:18;7.43;;;2.57;;
6791;SDS011;3433;48.730;9.108;2023-12-20T13:57:07;2.30;;;1.40;;
6791;SDS011;3433;48.730;9.108;2023-12-20T13:59:54;5.50;;;1.20;;
6791;SDS011;3433;48.730;9.108;2023-12-20T14:02:42;3.30;;;1.30;;
6791;SDS011;3433;48.730;9.108;2023-12-20T14:05:29;8.53;;;1.50;;
6791;SDS011;3433;48.730;9.108;2023-12-20T14:08:18;3.53;;;1.30;;
6791;SDS011;3433;48.730;9.108;2023-12-20T14:11:05;3.80;;;1.30;;
6791;SDS011;3433;48.730;9.108;2023-12-20T14:13:52;3.70;;;1.30;;
6791;SDS011;3433;48.730;9.108;2023-12-20T14:16:43;2.03;;;1.30;;
6791;SDS011;3433;48.730;9.108;2023-12-20T14:19:30;3.10;;;1.20;;
6791;SDS011;3433;48.730;9.108;2023-12-20T14:22:17;7.67;;;1.40;;
6791;SDS011;3433;48.730;9.108;2023-12-20T14:25:06;1.80;;;1.30;;
6791;SDS011;3433;48.730;9.108;2023-12-20T14:27:56;4.97;;;1.60;;
6791;SDS011;3433;48.730;9.108;2023-12-20T14:30:44;4.00;;;2.20;;
6791;SDS011;3433;48.730;9.108;2023-12-20T14:33:32;2.53;;;1.70;;
6791;SDS011;3433;48.730;9.108;2023-12-20T14:36:19;5.23;;;1.07;;
6791;SDS011;3433;48.730;9.108;2023-12-20T14:39:08;8.80;;;1.80;;
6791;SDS011;3433;48.730;9.108;2023-12-20T14:41:59;3.07;;;1.20;;
6791;SDS011;3433;48.730;9.108;2023-12-20T14:44:46;7.53;;;1.43;;
6791;SDS011;3433;48.730;9.108;2023-12-20T14:47:34;3.60;;;1.40;;
6791;SDS011;3433;48.730;9.108;2023-12-20T14:50:21;3.53;;;1.57;;
6791;SDS011;3433;48.730;9.108;2023-12-20T14:53:08;4.50;;;1.53;;
6791;SDS011;3433;48.730;9.108;2023-12-20T14:55:55;7.37;;;2.30;;
6791;SDS011;3433;48.730;9.108;2023-12-20T14:58:44;7.73;;;1.40;;
6791;SDS011;3433;48.730;9.108;2023-12-20T15:01:33;2.83;;;2.07;;
6791;SDS011;3433;48.730;9.108;2023-12-20T15:04:20;6.00;;;2.00;;
6791;SDS011;3433;48.730;9.108;2023-12-20T15:07:13;2.10;;;1.10;;
6791;SDS011;3433;48.730;9.108;2023-12-20T15:10:02;6.43;;;1.63;;
6791;SDS011;3433;48.730;9.108;2023-12-20T15:12:50;1.60;;;1.10;;
6791;SDS011;3433;48.730;9.108;2023-12-20T15:15:39;3.27;;;1.60;;
6791;SDS011;3433;48.730;9.108;2023-12-20T15:18:26;3.47;;;1.60;;
6791;SDS011;3433;48.730;9.108;2023-12-20T15:21:14;4.33;;;1.53;;
6791;SDS011;3433;48.730;9.108;2023-12-20T15:24:01;2.53;;;1.40;;
6791;SDS011;3433;48.730;9.108;2023-12-20T15:26:58;5.37;;;2.00;;
6791;SDS011;3433;48.730;9.108;2023-12-20T15:29:45;3.80;;;1.47;;
6791;SDS011;3433;48.730;9.108;2023-12-20T15:32:36;4.40;;;1.70;;
6791;SDS011;3433;48.730;9.108;2023-12-20T15:35:23;2.97;;;1.73;;
6791;SDS011;3433;48.730;9.108;2023-12-20T15:38:11;3.30;;;1.90;;
6791;SDS011;3433;48.730;9.108;2023-12-20T15:40:59;7.20;;;1.93;;
6791;SDS011;3433;48.730;9.108;2023-12-20T15:43:47;6.97;;;1.63;;
6791;SDS011;3433;48.730;9.108;2023-12-20T15:46:34;3.80;;;1.80;;
6791;SDS011;3433;48.730;9.108;2023-12-20T15:49:23;3.40;;;1.50;;
6791;SDS011;3433;48.730;9.108;2023-12-20T15:52:10;2.87;;;1.63;;
6791;SDS011;3433;48.730;9.108;2023-12-20T15:54:58;3.13;;;1.67;;
6791;SDS011;3433;48.730;9.108;2023-12-20T15:57:45;7.90;;;1.97;;
6791;SDS011;3433;48.730;9.108;2023-12-20T16:00:32;4.30;;;1.87;;
6791;SDS011;3433;48.730;9.108;2023-12-20T16:03:19;3.50;;;1.83;;
6791;SDS011;3433;48.730;9.108;2023-12-20T16:06:08;2.17;;;1.37;;
6791;SDS011;3433;48.730;9.108;2023-12-20T16:08:55;2.63;;;1.87;;
6791;SDS011;3433;48.730;9.108;2023-12-20T16:11:43;3.57;;;2.00;;
6791;SDS011;3433;48.730;9.108;2023-12-20T16:14:30;5.33;;;1.80;;
6791;SDS011;3433;48.730;9.108;2023-12-20T16:17:17;3.27;;;1.70;;
6791;SDS011;3433;48.730;9.108;2023-12-20T16:20:05;7.20;;;1.90;;
6791;SDS011;3433;48.730;9.108;2023-12-20T16:22:55;3.67;;;2.03;;
6791;SDS011;3433;48.730;9.108;2023-12-20T16:25:42;5.47;;;2.30;;
6791;SDS011;3433;48.730;9.108;2023-12-20T16:28:30;4.43;;;2.83;;
6791;SDS011;3433;48.730;9.108;2023-12-20T16:31:17;3.70;;;1.90;;
6791;SDS011;3433;48.730;9.108;2023-12-20T16:34:04;4.60;;;1.90;;
6791;SDS011;3433;48.730;9.108;2023-12-20T16:36:52;3.60;;;1.90;;
6791;SDS011;3433;48.730;9.108;2023-12-20T16:39:41;5.17;;;1.90;;
6791;SDS011;3433;48.730;9.108;2023-12-20T16:42:28;3.27;;;1.83;;
6791;SDS011;3433;48.730;9.108;2023-12-20T16:45:15;4.87;;;2.27;;
6791;SDS011;3433;48.730;9.108;2023-12-20T16:48:03;4.90;;;2.00;;
6791;SDS011;3433;48.730;9.108;2023-12-20T16:50:50;4.50;;;1.77;;
6791;SDS011;3433;48.730;9.108;2023-12-20T16:53:38;6.87;;;2.53;;
6791;SDS011;3433;48.730;9.108;2023-12-20T16:56:26;3.30;;;2.13;;
6791;SDS011;3433;48.730;9.108;2023-12-20T16:59:13;4.43;;;2.20;;
6791;SDS011;3433;48.730;9.108;2023-12-20T17:02:00;6.03;;;1.70;;
6791;SDS011;3433;48.730;9.108;2023-12-20T17:04:49;3.60;;;2.00;;
6791;SDS011;3433;48.730;9.108;2023-12-20T17:07:36;6.80;;;1.63;;
6791;SDS011;3433;48.730;9.108;2023-12-20T17:10:23;3.67;;;1.93;;
6791;SDS011;3433;48.730;9.108;2023-12-20T17:13:12;5.83;;;2.00;;
6791;SDS011;3433;48.730;9.108;2023-12-20T17:15:59;2.43;;;1.73;;
6791;SDS011;3433;48.730;9.108;2023-12-20T17:18:46;2.50;;;2.20;;
6791;SDS011;3433;48.730;9.108;2023-12-20T17:21:35;2.57;;;2.17;;